sensor_id;sensor_type;location;lat;lon;timestamp;pressure;altitude;pressure_sealevel;temperature;humidity
77979;BME280;67169;50.268;8.694;2023-12-04T00:01:02;99909.88;;;-3.08;91.81
77979;BME280;67169;50.268;8.694;2023-12-04T00:03:30;99909.81;;;-3.11;91.75
77979;BME280;67169;50.268;8.694;2023-12-04T00:05:57;99901.03;;;-3.10;91.71
77979;BME280;67169;50.268;8.694;2023-12-04T00:08:23;99899.28;;;-3.11;91.47
77979;BME280;67169;50.268;8.694;2023-12-04T00:10:50;99901.03;;;-3.10;91.61
77979;BME280;67169;50.268;8.694;2023-12-04T00:13:17;99886.06;;;-3.16;91.63
77979;BME280;67169;50.268;8.694;2023-12-04T00:15:44;99889.56;;;-3.15;91.66
77979;BME280;67169;50.268;8.694;2023-12-04T00:18:10;99888.69;;;-3.14;91.49
77979;BME280;67169;50.268;8.694;2023-12-04T00:20:38;99883.38;;;-3.17;91.31
77979;BME280;67169;50.268;8.694;2023-12-04T00:23:05;99889.50;;;-3.18;91.29
77979;BME280;67169;50.268;8.694;2023-12-04T00:25:32;99882.50;;;-3.18;91.58
77979;BME280;67169;50.268;8.694;2023-12-04T00:27:58;99880.81;;;-3.14;91.45
77979;BME280;67169;50.268;8.694;2023-12-04T00:30:25;99882.53;;;-3.16;91.41
77979;BME280;67169;50.268;8.694;2023-12-04T00:32:51;99874.59;;;-3.19;91.35
77979;BME280;67169;50.268;8.694;2023-12-04T00:35:18;99877.16;;;-3.22;91.66
77979;BME280;67169;50.268;8.694;2023-12-04T00:37:46;99874.53;;;-3.22;91.73
77979;BME280;67169;50.268;8.694;2023-12-04T00:40:12;99867.53;;;-3.20;91.94
77979;BME280;67169;50.268;8.694;2023-12-04T00:42:39;99861.38;;;-3.22;91.97
77979;BME280;67169;50.268;8.694;2023-12-04T00:45:06;99857.81;;;-3.26;92.22
77979;BME280;67169;50.268;8.694;2023-12-04T00:47:33;99858.69;;;-3.24;92.22
77979;BME280;67169;50.268;8.694;2023-12-04T00:50:00;99867.38;;;-3.29;92.17
77979;BME280;67169;50.268;8.694;2023-12-04T00:52:27;99854.97;;;-3.37;92.12
77979;BME280;67169;50.268;8.694;2023-12-04T00:54:54;99853.19;;;-3.38;92.35
77979;BME280;67169;50.268;8.694;2023-12-04T00:57:21;99843.47;;;-3.42;92.34
77979;BME280;67169;50.268;8.694;2023-12-04T00:59:48;99845.22;;;-3.42;92.41
77979;BME280;67169;50.268;8.694;2023-12-04T01:02:15;99847.78;;;-3.47;92.30
77979;BME280;67169;50.268;8.694;2023-12-04T01:04:41;99844.97;;;-3.54;92.58
77979;BME280;67169;50.268;8.694;2023-12-04T01:07:08;99854.72;;;-3.49;92.57
77979;BME280;67169;50.268;8.694;2023-12-04T01:09:34;99847.50;;;-3.59;92.73
77979;BME280;67169;50.268;8.694;2023-12-04T01:12:03;99840.56;;;-3.55;92.75
77979;BME280;67169;50.268;8.694;2023-12-04T01:14:29;99842.19;;;-3.62;92.72
77979;BME280;67169;50.268;8.694;2023-12-04T01:16:56;99837.78;;;-3.63;92.79
77979;BME280;67169;50.268;8.694;2023-12-04T01:19:23;99829.78;;;-3.69;92.87
77979;BME280;67169;50.268;8.694;2023-12-04T01:21:49;99834.97;;;-3.72;93.03
77979;BME280;67169;50.268;8.694;2023-12-04T01:24:16;99824.41;;;-3.75;93.17
77979;BME280;67169;50.268;8.694;2023-12-04T01:26:42;99823.44;;;-3.80;93.06
77979;BME280;67169;50.268;8.694;2023-12-04T01:29:10;99825.25;;;-3.76;93.06
77979;BME280;67169;50.268;8.694;2023-12-04T01:31:37;99830.44;;;-3.81;93.20
77979;BME280;67169;50.268;8.694;2023-12-04T01:34:03;99816.34;;;-3.85;93.25
77979;BME280;67169;50.268;8.694;2023-12-04T01:36:30;99821.50;;;-3.89;93.40
77979;BME280;67169;50.268;8.694;2023-12-04T01:38:56;99819.66;;;-3.93;93.45
77979;BME280;67169;50.268;8.694;2023-12-04T01:41:22;99814.41;;;-3.93;93.65
77979;BME280;67169;50.268;8.694;2023-12-04T01:43:48;99821.41;;;-3.94;93.64
77979;BME280;67169;50.268;8.694;2023-12-04T01:46:17;99809.88;;;-4.02;93.69
77979;BME280;67169;50.268;8.694;2023-12-04T01:48:44;99783.41;;;-4.11;93.72
77979;BME280;67169;50.268;8.694;2023-12-04T01:51:12;99810.84;;;-3.97;93.74
77979;BME280;67169;50.268;8.694;2023-12-04T01:53:40;99809.06;;;-3.98;93.76
77979;BME280;67169;50.268;8.694;2023-12-04T01:56:08;99802.81;;;-4.03;93.48
77979;BME280;67169;50.268;8.694;2023-12-04T01:58:36;99802.00;;;-4.00;93.83
77979;BME280;67169;50.268;8.694;2023-12-04T02:01:04;99805.50;;;-4.01;93.90
77979;BME280;67169;50.268;8.694;2023-12-04T02:03:33;99808.13;;;-4.00;93.85
77979;BME280;67169;50.268;8.694;2023-12-04T02:05:59;99802.75;;;-4.06;93.85
77979;BME280;67169;50.268;8.694;2023-12-04T02:08:28;99802.66;;;-4.12;94.05
77979;BME280;67169;50.268;8.694;2023-12-04T02:10:55;99802.66;;;-4.12;94.02
77979;BME280;67169;50.268;8.694;2023-12-04T02:13:21;99799.09;;;-4.14;94.34
77979;BME280;67169;50.268;8.694;2023-12-04T02:15:49;99789.22;;;-4.26;94.45
77979;BME280;67169;50.268;8.694;2023-12-04T02:18:18;99806.09;;;-4.13;94.43
77979;BME280;67169;50.268;8.694;2023-12-04T02:20:48;99813.97;;;-4.13;94.56
77979;BME280;67169;50.268;8.694;2023-12-04T02:23:15;99806.81;;;-4.22;94.46
77979;BME280;67169;50.268;8.694;2023-12-04T02:25:43;99809.38;;;-4.25;94.53
77979;BME280;67169;50.268;8.694;2023-12-04T02:28:13;99807.56;;;-4.27;94.73
77979;BME280;67169;50.268;8.694;2023-12-04T02:30:43;99801.41;;;-4.30;94.57
77979;BME280;67169;50.268;8.694;2023-12-04T02:33:13;99797.78;;;-4.35;94.62
77979;BME280;67169;50.268;8.694;2023-12-04T02:35:40;99788.22;;;-4.31;94.70
77979;BME280;67169;50.268;8.694;2023-12-04T02:38:09;99774.94;;;-4.39;94.65
77979;BME280;67169;50.268;8.694;2023-12-04T02:40:36;99777.56;;;-4.39;94.74
77979;BME280;67169;50.268;8.694;2023-12-04T02:43:04;99777.63;;;-4.36;95.02
77979;BME280;67169;50.268;8.694;2023-12-04T02:45:30;99775.88;;;-4.35;94.99
77979;BME280;67169;50.268;8.694;2023-12-04T02:47:57;99767.78;;;-4.44;94.98
77979;BME280;67169;50.268;8.694;2023-12-04T02:50:23;99769.53;;;-4.45;95.14
77979;BME280;67169;50.268;8.694;2023-12-04T02:52:50;99755.53;;;-4.47;95.26
77979;BME280;67169;50.268;8.694;2023-12-04T02:55:17;99759.84;;;-4.47;95.27
77979;BME280;67169;50.268;8.694;2023-12-04T02:57:43;99760.84;;;-4.44;95.36
77979;BME280;67169;50.268;8.694;2023-12-04T03:00:12;99759.03;;;-4.45;95.28
77979;BME280;67169;50.268;8.694;2023-12-04T03:02:39;99761.53;;;-4.51;95.42
77979;BME280;67169;50.268;8.694;2023-12-04T03:05:06;99758.16;;;-4.47;95.25
77979;BME280;67169;50.268;8.694;2023-12-04T03:07:32;99744.03;;;-4.52;95.35
77979;BME280;67169;50.268;8.694;2023-12-04T03:09:59;99747.59;;;-4.48;95.34
77979;BME280;67169;50.268;8.694;2023-12-04T03:12:26;99748.59;;;-4.43;95.51
77979;BME280;67169;50.268;8.694;2023-12-04T03:14:52;99746.03;;;-4.40;95.10
77979;BME280;67169;50.268;8.694;2023-12-04T03:17:20;99745.09;;;-4.44;95.15
77979;BME280;67169;50.268;8.694;2023-12-04T03:19:47;99738.03;;;-4.45;95.38
77979;BME280;67169;50.268;8.694;2023-12-04T03:22:13;99739.06;;;-4.40;95.31
77979;BME280;67169;50.268;8.694;2023-12-04T03:24:40;99726.81;;;-4.39;95.16
77979;BME280;67169;50.268;8.694;2023-12-04T03:27:07;99726.81;;;-4.38;95.22
77979;BME280;67169;50.268;8.694;2023-12-04T03:29:34;99714.72;;;-4.72;95.30
77979;BME280;67169;50.268;8.694;2023-12-04T03:32:00;99728.63;;;-4.37;95.19
77979;BME280;67169;50.268;8.694;2023-12-04T03:34:28;99726.75;;;-4.41;95.19
77979;BME280;67169;50.268;8.694;2023-12-04T03:36:55;99709.22;;;-4.43;94.94
77979;BME280;67169;50.268;8.694;2023-12-04T03:39:21;99709.09;;;-4.48;95.53
77979;BME280;67169;50.268;8.694;2023-12-04T03:41:48;99707.47;;;-4.43;95.35
77979;BME280;67169;50.268;8.694;2023-12-04T03:44:14;99712.88;;;-4.37;95.43
77979;BME280;67169;50.268;8.694;2023-12-04T03:46:41;99703.13;;;-4.41;95.33
77979;BME280;67169;50.268;8.694;2023-12-04T03:49:08;99696.06;;;-4.45;95.35
77979;BME280;67169;50.268;8.694;2023-12-04T03:51:36;99694.44;;;-4.38;95.32
77979;BME280;67169;50.268;8.694;2023-12-04T03:54:02;99685.69;;;-4.39;95.41
77979;BME280;67169;50.268;8.694;2023-12-04T03:56:29;99690.06;;;-4.38;95.36
77979;BME280;67169;50.268;8.694;2023-12-04T03:58:55;99688.25;;;-4.42;95.33
77979;BME280;67169;50.268;8.694;2023-12-04T04:01:22;99674.25;;;-4.41;95.07
77979;BME280;67169;50.268;8.694;2023-12-04T04:03:48;99668.03;;;-4.46;95.51
77979;BME280;67169;50.268;8.694;2023-12-04T04:06:15;99675.06;;;-4.45;95.45
77979;BME280;67169;50.268;8.694;2023-12-04T04:08:43;99668.06;;;-4.44;95.79
77979;BME280;67169;50.268;8.694;2023-12-04T04:11:10;99666.28;;;-4.47;96.03
77979;BME280;67169;50.268;8.694;2023-12-04T04:13:37;99667.25;;;-4.42;95.98
77979;BME280;67169;50.268;8.694;2023-12-04T04:16:04;99662.75;;;-4.47;95.97
77979;BME280;67169;50.268;8.694;2023-12-04T04:18:31;99657.47;;;-4.50;95.80
77979;BME280;67169;50.268;8.694;2023-12-04T04:20:57;99660.09;;;-4.49;96.09
77979;BME280;67169;50.268;8.694;2023-12-04T04:23:24;99658.34;;;-4.50;96.16
77979;BME280;67169;50.268;8.694;2023-12-04T04:25:52;99667.06;;;-4.51;96.07
77979;BME280;67169;50.268;8.694;2023-12-04T04:28:18;99665.34;;;-4.50;96.05
77979;BME280;67169;50.268;8.694;2023-12-04T04:30:45;99670.59;;;-4.49;96.23
77979;BME280;67169;50.268;8.694;2023-12-04T04:33:11;99652.25;;;-4.47;96.11
77979;BME280;67169;50.268;8.694;2023-12-04T04:35:38;99662.84;;;-4.43;96.29
77979;BME280;67169;50.268;8.694;2023-12-04T04:38:04;99668.09;;;-4.43;96.31
77979;BME280;67169;50.268;8.694;2023-12-04T04:40:31;99653.22;;;-4.44;96.53
77979;BME280;67169;50.268;8.694;2023-12-04T04:42:59;99663.75;;;-4.41;96.13
77979;BME280;67169;50.268;8.694;2023-12-04T04:45:25;99656.81;;;-4.37;95.89
77979;BME280;67169;50.268;8.694;2023-12-04T04:47:52;99660.41;;;-4.34;95.63
77979;BME280;67169;50.268;8.694;2023-12-04T04:50:19;99657.78;;;-4.34;95.75
77979;BME280;67169;50.268;8.694;2023-12-04T04:52:45;99652.56;;;-4.32;95.56
77979;BME280;67169;50.268;8.694;2023-12-04T04:55:12;99658.78;;;-4.27;95.44
77979;BME280;67169;50.268;8.694;2023-12-04T04:57:38;99649.97;;;-4.31;94.81
77979;BME280;67169;50.268;8.694;2023-12-04T05:00:08;99649.88;;;-4.37;94.61
77979;BME280;67169;50.268;8.694;2023-12-04T05:02:34;99646.38;;;-4.36;94.26
77979;BME280;67169;50.268;8.694;2023-12-04T05:05:03;99648.19;;;-4.33;94.06
77979;BME280;67169;50.268;8.694;2023-12-04T05:07:30;99636.69;;;-4.38;94.00
77979;BME280;67169;50.268;8.694;2023-12-04T05:09:56;99627.91;;;-4.40;94.09
77979;BME280;67169;50.268;8.694;2023-12-04T05:12:23;99632.31;;;-4.38;93.93
77979;BME280;67169;50.268;8.694;2023-12-04T05:14:49;99635.94;;;-4.33;93.77
77979;BME280;67169;50.268;8.694;2023-12-04T05:17:17;99635.81;;;-4.39;93.84
77979;BME280;67169;50.268;8.694;2023-12-04T05:19:44;99626.97;;;-4.44;93.84
77979;BME280;67169;50.268;8.694;2023-12-04T05:22:10;99621.81;;;-4.38;93.71
77979;BME280;67169;50.268;8.694;2023-12-04T05:24:37;99624.38;;;-4.41;93.70
77979;BME280;67169;50.268;8.694;2023-12-04T05:27:04;99611.25;;;-4.41;93.27
77979;BME280;67169;50.268;8.694;2023-12-04T05:29:30;99622.81;;;-4.31;93.21
77979;BME280;67169;50.268;8.694;2023-12-04T05:31:57;99616.63;;;-4.36;93.05
77979;BME280;67169;50.268;8.694;2023-12-04T05:34:25;99619.25;;;-4.36;93.32
77979;BME280;67169;50.268;8.694;2023-12-04T05:36:51;99620.94;;;-4.38;93.42
77979;BME280;67169;50.268;8.694;2023-12-04T05:39:18;99609.50;;;-4.42;93.86
77979;BME280;67169;50.268;8.694;2023-12-04T05:41:45;99613.00;;;-4.43;94.10
77979;BME280;67169;50.268;8.694;2023-12-04T05:44:11;99606.81;;;-4.45;94.26
77979;BME280;67169;50.268;8.694;2023-12-04T05:46:38;99606.00;;;-4.41;94.24
77979;BME280;67169;50.268;8.694;2023-12-04T05:49:05;99613.13;;;-4.37;94.06
77979;BME280;67169;50.268;8.694;2023-12-04T05:51:33;99600.06;;;-4.32;93.84
77979;BME280;67169;50.268;8.694;2023-12-04T05:54:00;99599.94;;;-4.38;93.97
77979;BME280;67169;50.268;8.694;2023-12-04T05:56:27;99595.50;;;-4.41;94.19
77979;BME280;67169;50.268;8.694;2023-12-04T05:58:53;99590.25;;;-4.42;94.09
77979;BME280;67169;50.268;8.694;2023-12-04T06:01:21;99585.88;;;-4.42;94.19
77979;BME280;67169;50.268;8.694;2023-12-04T06:03:47;99588.56;;;-4.40;94.21
77979;BME280;67169;50.268;8.694;2023-12-04T06:06:14;99592.13;;;-4.37;93.99
77979;BME280;67169;50.268;8.694;2023-12-04T06:08:42;99585.00;;;-4.42;94.30
77979;BME280;67169;50.268;8.694;2023-12-04T06:11:08;99585.00;;;-4.44;94.69
77979;BME280;67169;50.268;8.694;2023-12-04T06:13:35;99567.28;;;-4.54;94.95
77979;BME280;67169;50.268;8.694;2023-12-04T06:16:02;99576.13;;;-4.49;94.69
77979;BME280;67169;50.268;8.694;2023-12-04T06:18:28;99569.94;;;-4.51;94.61
77979;BME280;67169;50.268;8.694;2023-12-04T06:20:55;99569.13;;;-4.48;94.54
77979;BME280;67169;50.268;8.694;2023-12-04T06:23:22;99566.44;;;-4.51;94.71
77979;BME280;67169;50.268;8.694;2023-12-04T06:25:50;99568.91;;;-4.61;94.96
77979;BME280;67169;50.268;8.694;2023-12-04T06:28:17;99573.22;;;-4.64;95.27
77979;BME280;67169;50.268;8.694;2023-12-04T06:30:45;99560.94;;;-4.65;95.19
77979;BME280;67169;50.268;8.694;2023-12-04T06:33:12;99560.88;;;-4.68;95.32
77979;BME280;67169;50.268;8.694;2023-12-04T06:35:40;99554.72;;;-4.70;95.42
77979;BME280;67169;50.268;8.694;2023-12-04T06:38:07;99563.59;;;-4.64;95.28
77979;BME280;67169;50.268;8.694;2023-12-04T06:40:34;99562.59;;;-4.70;95.35
77979;BME280;67169;50.268;8.694;2023-12-04T06:43:04;99578.28;;;-4.72;95.34
77979;BME280;67169;50.268;8.694;2023-12-04T06:45:31;99573.81;;;-4.78;95.51
77979;BME280;67169;50.268;8.694;2023-12-04T06:47:59;99570.34;;;-4.75;95.53
77979;BME280;67169;50.268;8.694;2023-12-04T06:50:25;99580.81;;;-4.78;95.50
77979;BME280;67169;50.268;8.694;2023-12-04T06:52:52;99574.72;;;-4.75;95.37
77979;BME280;67169;50.268;8.694;2023-12-04T06:55:19;99572.97;;;-4.75;95.34
77979;BME280;67169;50.268;8.694;2023-12-04T06:57:45;99564.41;;;-4.68;94.93
77979;BME280;67169;50.268;8.694;2023-12-04T07:00:14;99574.84;;;-4.69;94.80
77979;BME280;67169;50.268;8.694;2023-12-04T07:02:41;99573.94;;;-4.71;94.62
77979;BME280;67169;50.268;8.694;2023-12-04T07:05:08;99562.59;;;-4.70;94.33
77979;BME280;67169;50.268;8.694;2023-12-04T07:07:35;99534.47;;;-4.78;94.42
77979;BME280;67169;50.268;8.694;2023-12-04T07:10:01;99539.81;;;-4.71;94.41
77979;BME280;67169;50.268;8.694;2023-12-04T07:12:28;99539.13;;;-4.61;94.11
77979;BME280;67169;50.268;8.694;2023-12-04T07:14:54;99537.38;;;-4.62;94.05
77979;BME280;67169;50.268;8.694;2023-12-04T07:17:22;99538.44;;;-4.54;93.81
77979;BME280;67169;50.268;8.694;2023-12-04T07:19:49;99531.38;;;-4.55;93.87
77979;BME280;67169;50.268;8.694;2023-12-04T07:22:15;99534.00;;;-4.55;93.78
77979;BME280;67169;50.268;8.694;2023-12-04T07:24:42;99519.06;;;-4.59;93.46
77979;BME280;67169;50.268;8.694;2023-12-04T07:27:08;99529.69;;;-4.53;93.63
77979;BME280;67169;50.268;8.694;2023-12-04T07:29:35;99520.88;;;-4.57;93.57
77979;BME280;67169;50.268;8.694;2023-12-04T07:32:03;99484.63;;;-4.78;93.53
77979;BME280;67169;50.268;8.694;2023-12-04T07:34:31;99527.00;;;-4.56;93.70
77979;BME280;67169;50.268;8.694;2023-12-04T07:36:58;99521.88;;;-4.50;93.59
77979;BME280;67169;50.268;8.694;2023-12-04T07:39:24;99507.81;;;-4.54;93.53
77979;BME280;67169;50.268;8.694;2023-12-04T07:41:51;99500.84;;;-4.51;93.58
77979;BME280;67169;50.268;8.694;2023-12-04T07:44:18;99488.50;;;-4.57;93.45
77979;BME280;67169;50.268;8.694;2023-12-04T07:46:44;99494.72;;;-4.52;93.34
77979;BME280;67169;50.268;8.694;2023-12-04T07:49:11;99503.63;;;-4.42;92.83
77979;BME280;67169;50.268;8.694;2023-12-04T07:51:39;99479.97;;;-4.45;92.46
77979;BME280;67169;50.268;8.694;2023-12-04T07:54:06;99492.53;;;-4.26;92.21
77979;BME280;67169;50.268;8.694;2023-12-04T07:56:32;99477.78;;;-4.18;92.45
77979;BME280;67169;50.268;8.694;2023-12-04T07:58:59;99495.44;;;-4.09;92.17
77979;BME280;67169;50.268;8.694;2023-12-04T08:01:26;99498.19;;;-4.01;91.66
77979;BME280;67169;50.268;8.694;2023-12-04T08:03:52;99485.94;;;-3.99;91.57
77979;BME280;67169;50.268;8.694;2023-12-04T08:06:19;99489.34;;;-4.08;91.51
77979;BME280;67169;50.268;8.694;2023-12-04T08:08:47;99458.53;;;-4.18;91.15
77979;BME280;67169;50.268;8.694;2023-12-04T08:11:13;99470.19;;;-3.99;91.21
77979;BME280;67169;50.268;8.694;2023-12-04T08:13:40;99480.91;;;-3.86;91.00
77979;BME280;67169;50.268;8.694;2023-12-04T08:16:12;99468.50;;;-3.96;90.58
77979;BME280;67169;50.268;8.694;2023-12-04T08:18:39;99490.69;;;-3.77;90.62
77979;BME280;67169;50.268;8.694;2023-12-04T08:21:06;99482.84;;;-3.72;90.35
77979;BME280;67169;50.268;8.694;2023-12-04T08:23:33;99479.44;;;-3.67;90.10
77979;BME280;67169;50.268;8.694;2023-12-04T08:26:01;99473.41;;;-3.58;90.03
77979;BME280;67169;50.268;8.694;2023-12-04T08:28:28;99473.59;;;-3.47;89.87
77979;BME280;67169;50.268;8.694;2023-12-04T08:30:54;99456.91;;;-3.48;89.90
77979;BME280;67169;50.268;8.694;2023-12-04T08:33:21;99458.78;;;-3.38;89.64
77979;BME280;67169;50.268;8.694;2023-12-04T08:35:47;99452.03;;;-3.17;88.94
77979;BME280;67169;50.268;8.694;2023-12-04T08:38:14;99448.66;;;-3.07;87.89
77979;BME280;67169;50.268;8.694;2023-12-04T08:40:40;99434.66;;;-3.04;87.19
77979;BME280;67169;50.268;8.694;2023-12-04T08:43:09;99427.75;;;-2.95;86.29
77979;BME280;67169;50.268;8.694;2023-12-04T08:45:36;99424.38;;;-2.81;85.78
77979;BME280;67169;50.268;8.694;2023-12-04T08:48:03;99411.22;;;-2.81;84.92
77979;BME280;67169;50.268;8.694;2023-12-04T08:50:29;99409.44;;;-2.84;84.74
77979;BME280;67169;50.268;8.694;2023-12-04T08:52:56;99394.44;;;-2.94;84.55
77979;BME280;67169;50.268;8.694;2023-12-04T08:55:22;99390.13;;;-2.84;84.73
77979;BME280;67169;50.268;8.694;2023-12-04T08:57:49;99391.03;;;-2.85;85.05
77979;BME280;67169;50.268;8.694;2023-12-04T09:00:17;99389.34;;;-2.74;84.96
77979;BME280;67169;50.268;8.694;2023-12-04T09:02:44;99392.78;;;-2.84;84.41
77979;BME280;67169;50.268;8.694;2023-12-04T09:05:11;99380.63;;;-2.72;83.99
77979;BME280;67169;50.268;8.694;2023-12-04T09:07:37;99366.63;;;-2.63;83.38
77979;BME280;67169;50.268;8.694;2023-12-04T09:10:05;99347.38;;;-2.60;82.90
77979;BME280;67169;50.268;8.694;2023-12-04T09:12:32;99370.31;;;-2.43;82.73
77979;BME280;67169;50.268;8.694;2023-12-04T09:15:00;99371.22;;;-2.39;82.46
77979;BME280;67169;50.268;8.694;2023-12-04T09:17:28;99353.56;;;-2.52;82.05
77979;BME280;67169;50.268;8.694;2023-12-04T09:19:55;99364.22;;;-2.35;81.87
77979;BME280;67169;50.268;8.694;2023-12-04T09:22:21;99359.84;;;-2.33;81.54
77979;BME280;67169;50.268;8.694;2023-12-04T09:24:49;99361.63;;;-2.29;81.44
77979;BME280;67169;50.268;8.694;2023-12-04T09:27:15;99370.38;;;-2.35;81.17
77979;BME280;67169;50.268;8.694;2023-12-04T09:29:42;99370.34;;;-2.40;81.59
77979;BME280;67169;50.268;8.694;2023-12-04T09:32:09;99371.25;;;-2.31;81.59
77979;BME280;67169;50.268;8.694;2023-12-04T09:34:37;99366.94;;;-2.22;81.04
77979;BME280;67169;50.268;8.694;2023-12-04T09:37:03;99370.44;;;-2.24;81.06
77979;BME280;67169;50.268;8.694;2023-12-04T09:39:30;99367.78;;;-2.27;80.97
77979;BME280;67169;50.268;8.694;2023-12-04T09:41:58;99360.72;;;-2.34;80.86
77979;BME280;67169;50.268;8.694;2023-12-04T09:44:26;99340.44;;;-2.45;80.62
77979;BME280;67169;50.268;8.694;2023-12-04T09:46:54;99365.16;;;-2.30;80.68
77979;BME280;67169;50.268;8.694;2023-12-04T09:49:22;99359.84;;;-2.33;80.36
77979;BME280;67169;50.268;8.694;2023-12-04T09:51:50;99349.28;;;-2.35;80.35
77979;BME280;67169;50.268;8.694;2023-12-04T09:54:17;99340.41;;;-2.51;80.35
77979;BME280;67169;50.268;8.694;2023-12-04T09:56:45;99337.81;;;-2.46;80.42
77979;BME280;67169;50.268;8.694;2023-12-04T09:59:13;99337.84;;;-2.42;80.44
77979;BME280;67169;50.268;8.694;2023-12-04T10:01:40;99335.19;;;-2.48;80.32
77979;BME280;67169;50.268;8.694;2023-12-04T10:04:07;99342.19;;;-2.45;80.79
77979;BME280;67169;50.268;8.694;2023-12-04T10:06:36;99322.00;;;-2.49;80.67
77979;BME280;67169;50.268;8.694;2023-12-04T10:09:05;99336.13;;;-2.36;80.33
77979;BME280;67169;50.268;8.694;2023-12-04T10:11:39;99343.06;;;-2.45;80.71
77979;BME280;67169;50.268;8.694;2023-12-04T10:14:14;99343.09;;;-2.48;80.76
77979;BME280;67169;50.268;8.694;2023-12-04T10:16:40;99339.50;;;-2.53;80.98
77979;BME280;67169;50.268;8.694;2023-12-04T10:19:18;99325.44;;;-2.61;81.06
77979;BME280;67169;50.268;8.694;2023-12-04T10:21:46;99313.88;;;-2.75;81.10
77979;BME280;67169;50.268;8.694;2023-12-04T10:24:27;99331.53;;;-2.62;81.16
77979;BME280;67169;50.268;8.694;2023-12-04T10:26:53;99332.50;;;-2.52;81.25
77979;BME280;67169;50.268;8.694;2023-12-04T10:29:22;99317.53;;;-2.59;81.52
77979;BME280;67169;50.268;8.694;2023-12-04T10:31:49;99312.28;;;-2.55;81.46
77979;BME280;67169;50.268;8.694;2023-12-04T10:34:18;99305.34;;;-2.47;81.24
77979;BME280;67169;50.268;8.694;2023-12-04T10:36:45;99315.84;;;-2.50;81.28
77979;BME280;67169;50.268;8.694;2023-12-04T10:39:12;99233.06;;;-2.95;81.68
77979;BME280;67169;50.268;8.694;2023-12-04T10:41:40;99295.66;;;-2.51;81.68
77979;BME280;67169;50.268;8.694;2023-12-04T10:44:07;99306.28;;;-2.35;81.88
77979;BME280;67169;50.268;8.694;2023-12-04T10:46:36;99287.88;;;-2.32;81.90
77979;BME280;67169;50.268;8.694;2023-12-04T10:49:04;99276.50;;;-2.27;82.21
77979;BME280;67169;50.268;8.694;2023-12-04T10:51:30;99275.66;;;-2.18;81.69
77979;BME280;67169;50.268;8.694;2023-12-04T10:53:57;99268.63;;;-2.19;81.52
77979;BME280;67169;50.268;8.694;2023-12-04T10:56:33;99273.06;;;-2.09;81.27
77979;BME280;67169;50.268;8.694;2023-12-04T10:59:02;99266.03;;;-2.10;81.48
77979;BME280;67169;50.268;8.694;2023-12-04T11:01:29;99281.00;;;-2.06;81.41
77979;BME280;67169;50.268;8.694;2023-12-04T11:03:59;99295.94;;;-2.02;81.56
77979;BME280;67169;50.268;8.694;2023-12-04T11:06:27;99300.28;;;-2.10;81.44
77979;BME280;67169;50.268;8.694;2023-12-04T11:08:56;99295.03;;;-2.04;81.63
77979;BME280;67169;50.268;8.694;2023-12-04T11:11:26;99277.53;;;-1.93;81.67
77979;BME280;67169;50.268;8.694;2023-12-04T11:13:56;99282.81;;;-1.83;81.80
77979;BME280;67169;50.268;8.694;2023-12-04T11:16:30;99268.81;;;-1.70;81.10
77979;BME280;67169;50.268;8.694;2023-12-04T11:19:03;99259.19;;;-1.65;80.82
77979;BME280;67169;50.268;8.694;2023-12-04T11:21:33;99265.31;;;-1.68;80.51
77979;BME280;67169;50.268;8.694;2023-12-04T11:24:01;99267.09;;;-1.65;80.75
77979;BME280;67169;50.268;8.694;2023-12-04T11:26:29;99246.00;;;-1.59;80.08
77979;BME280;67169;50.268;8.694;2023-12-04T11:28:56;99253.97;;;-1.33;79.95
77979;BME280;67169;50.268;8.694;2023-12-04T11:31:23;99246.94;;;-1.29;79.72
77979;BME280;67169;50.268;8.694;2023-12-04T11:33:51;99226.69;;;-1.39;79.01
77979;BME280;67169;50.268;8.694;2023-12-04T11:36:18;99175.69;;;-1.75;78.33
77979;BME280;67169;50.268;8.694;2023-12-04T11:38:46;99193.28;;;-1.56;77.88
77979;BME280;67169;50.268;8.694;2023-12-04T11:41:16;99209.13;;;-1.44;77.56
77979;BME280;67169;50.268;8.694;2023-12-04T11:43:45;99211.72;;;-1.53;77.34
77979;BME280;67169;50.268;8.694;2023-12-04T11:46:13;99211.72;;;-1.68;77.44
77979;BME280;67169;50.268;8.694;2023-12-04T11:48:40;99218.75;;;-1.69;77.97
77979;BME280;67169;50.268;8.694;2023-12-04T11:51:10;99220.47;;;-1.72;78.04
77979;BME280;67169;50.268;8.694;2023-12-04T11:53:39;99214.34;;;-1.68;78.41
77979;BME280;67169;50.268;8.694;2023-12-04T11:56:10;99215.22;;;-1.69;78.39
77979;BME280;67169;50.268;8.694;2023-12-04T11:58:42;99209.09;;;-1.68;78.61
77979;BME280;67169;50.268;8.694;2023-12-04T12:01:08;99198.53;;;-1.71;79.18
77979;BME280;67169;50.268;8.694;2023-12-04T12:03:35;99191.47;;;-1.72;79.37
77979;BME280;67169;50.268;8.694;2023-12-04T12:06:02;99193.25;;;-1.70;79.24
77979;BME280;67169;50.268;8.694;2023-12-04T12:08:31;99179.19;;;-1.73;79.20
77979;BME280;67169;50.268;8.694;2023-12-04T12:10:58;99178.28;;;-1.80;79.99
77979;BME280;67169;50.268;8.694;2023-12-04T12:13:24;99177.38;;;-1.99;81.43
77979;BME280;67169;50.268;8.694;2023-12-04T12:15:52;99180.81;;;-2.21;82.98
77979;BME280;67169;50.268;8.694;2023-12-04T12:18:18;99147.38;;;-2.42;84.76
77979;BME280;67169;50.268;8.694;2023-12-04T12:20:45;99183.41;;;-2.35;86.53
77979;BME280;67169;50.268;8.694;2023-12-04T12:23:11;99177.22;;;-2.42;87.30
77979;BME280;67169;50.268;8.694;2023-12-04T12:25:39;99172.78;;;-2.52;88.14
77979;BME280;67169;50.268;8.694;2023-12-04T12:28:06;99162.22;;;-2.59;89.05
77979;BME280;67169;50.268;8.694;2023-12-04T12:30:33;99162.19;;;-2.63;89.83
77979;BME280;67169;50.268;8.694;2023-12-04T12:32:59;99159.56;;;-2.66;90.75
77979;BME280;67169;50.268;8.694;2023-12-04T12:35:26;99151.69;;;-2.63;91.75
77979;BME280;67169;50.268;8.694;2023-12-04T12:37:52;99134.13;;;-2.68;92.38
77979;BME280;67169;50.268;8.694;2023-12-04T12:40:20;99151.69;;;-2.61;92.75
77979;BME280;67169;50.268;8.694;2023-12-04T12:42:48;99145.50;;;-2.69;93.53
77979;BME280;67169;50.268;8.694;2023-12-04T12:45:16;99113.00;;;-2.77;94.04
77979;BME280;67169;50.268;8.694;2023-12-04T12:47:43;99138.50;;;-2.66;94.50
77979;BME280;67169;50.268;8.694;2023-12-04T12:50:11;99064.63;;;-3.07;95.15
77979;BME280;67169;50.268;8.694;2023-12-04T12:52:38;99142.00;;;-2.71;95.43
77979;BME280;67169;50.268;8.694;2023-12-04T12:55:06;99142.81;;;-2.81;96.01
77979;BME280;67169;50.268;8.694;2023-12-04T12:57:33;99137.53;;;-2.84;96.69
77979;BME280;67169;50.268;8.694;2023-12-04T13:00:01;99134.94;;;-2.78;97.16